createdAt,value
2023-03-05T00:01:12.959Z,7.60
2023-03-05T00:03:40.972Z,7.50
2023-03-05T00:06:07.916Z,7.60
2023-03-05T00:08:34.657Z,7.60
2023-03-05T00:11:03.511Z,7.60
2023-03-05T00:13:30.609Z,7.60
2023-03-05T00:15:57.386Z,7.60
2023-03-05T00:18:24.450Z,7.60
2023-03-05T00:20:51.153Z,7.60
2023-03-05T00:23:17.902Z,7.60
2023-03-05T00:25:44.600Z,7.60
2023-03-05T00:28:11.336Z,7.50
2023-03-05T00:30:38.028Z,7.60
2023-03-05T00:33:04.740Z,7.60
2023-03-05T00:35:31.428Z,7.60
2023-03-05T00:37:58.217Z,7.60
2023-03-05T00:40:24.976Z,7.60
2023-03-05T00:42:51.716Z,7.50
2023-03-05T00:45:18.521Z,7.60
2023-03-05T00:47:45.227Z,7.50
2023-03-05T00:50:11.999Z,7.50
2023-03-05T00:52:38.703Z,7.50
2023-03-05T00:55:07.800Z,7.50
2023-03-05T00:57:34.539Z,7.40
2023-03-05T01:00:01.227Z,7.40
2023-03-05T01:02:27.941Z,7.40
2023-03-05T01:04:54.607Z,7.40
2023-03-05T01:07:21.318Z,7.30
2023-03-05T01:09:48.025Z,7.30
2023-03-05T01:12:14.758Z,7.40
2023-03-05T01:14:41.449Z,7.30
2023-03-05T01:17:08.256Z,7.30
2023-03-05T01:19:35.027Z,7.30
2023-03-05T01:22:01.734Z,7.30
2023-03-05T01:24:28.469Z,7.30
2023-03-05T01:26:55.149Z,7.30
2023-03-05T01:29:21.832Z,7.30
2023-03-05T01:31:48.603Z,7.30
2023-03-05T01:34:15.373Z,7.30
2023-03-05T01:36:42.463Z,7.30
2023-03-05T01:39:09.967Z,7.30
2023-03-05T01:41:36.723Z,7.30
2023-03-05T01:44:03.406Z,7.30
2023-03-05T01:46:39.003Z,7.30
2023-03-05T01:49:41.248Z,7.30
2023-03-05T01:52:13.116Z,7.30
2023-03-05T01:55:08.373Z,7.30
2023-03-05T01:57:43.149Z,7.30
2023-03-05T02:00:16.732Z,7.30
2023-03-05T02:02:48.852Z,7.20
2023-03-05T02:05:20.652Z,7.20
2023-03-05T02:07:47.373Z,7.10
2023-03-05T02:10:19.283Z,7.10
2023-03-05T02:12:47.028Z,7.10
2023-03-05T02:15:13.735Z,7.10
2023-03-05T02:17:40.494Z,7.10
2023-03-05T02:20:19.118Z,7.10
2023-03-05T02:22:45.886Z,7.10
2023-03-05T02:25:26.659Z,7.10
2023-03-05T02:28:18.978Z,7.00
2023-03-05T02:30:45.654Z,7.10
2023-03-05T02:33:14.294Z,7.00
2023-03-05T02:35:41.094Z,7.00
2023-03-05T02:38:07.814Z,7.00
2023-03-05T02:40:34.494Z,7.00
2023-03-05T02:43:01.184Z,7.00
2023-03-05T02:45:27.888Z,7.00
2023-03-05T02:47:54.624Z,7.00
2023-03-05T02:50:21.750Z,7.10
2023-03-05T02:52:48.466Z,7.10
2023-03-05T02:55:15.177Z,7.10
2023-03-05T02:57:41.891Z,7.10
2023-03-05T03:00:09.308Z,7.10
2023-03-05T03:02:36.058Z,7.10
2023-03-05T03:05:02.820Z,7.10
2023-03-05T03:07:29.498Z,7.10
2023-03-05T03:09:56.189Z,7.10
2023-03-05T03:12:22.964Z,7.10
2023-03-05T03:14:49.642Z,7.00
2023-03-05T03:17:17.073Z,7.00
2023-03-05T03:19:43.943Z,7.00
2023-03-05T03:22:11.314Z,7.00
2023-03-05T03:24:38.268Z,7.00
2023-03-05T03:27:05.106Z,7.00
2023-03-05T03:29:31.948Z,7.10
2023-03-05T03:31:58.688Z,7.00
2023-03-05T03:34:25.772Z,7.00
2023-03-05T03:36:52.546Z,7.00
2023-03-05T03:39:19.507Z,7.00
2023-03-05T03:41:48.192Z,7.00
2023-03-05T03:44:15.014Z,7.00
2023-03-05T03:46:41.719Z,7.00
2023-03-05T03:49:08.512Z,7.00
2023-03-05T03:51:35.319Z,7.10
2023-03-05T03:54:01.998Z,7.10
2023-03-05T03:56:28.718Z,7.10
2023-03-05T03:58:55.415Z,7.10
2023-03-05T04:01:22.120Z,7.00
2023-03-05T04:03:48.814Z,7.00
2023-03-05T04:06:15.579Z,7.00
2023-03-05T04:08:42.256Z,7.00
2023-03-05T04:11:09.041Z,7.00
2023-03-05T04:13:35.722Z,7.00
2023-03-05T04:16:02.472Z,7.00
2023-03-05T04:18:30.682Z,6.90
2023-03-05T04:20:58.896Z,6.90
2023-03-05T04:23:25.603Z,6.90
2023-03-05T04:25:52.319Z,6.80
2023-03-05T04:28:19.046Z,6.80
2023-03-05T04:30:45.805Z,6.80
2023-03-05T04:33:12.536Z,6.70
2023-03-05T04:35:39.294Z,6.70
2023-03-05T04:38:06.063Z,6.70
2023-03-05T04:40:32.791Z,6.70
2023-03-05T04:42:59.458Z,6.70
2023-03-05T04:45:26.200Z,6.70
2023-03-05T04:47:52.912Z,6.70
2023-03-05T04:50:19.755Z,6.70
2023-03-05T04:52:46.660Z,6.70
2023-03-05T04:55:13.826Z,6.60
2023-03-05T04:57:40.527Z,6.60
2023-03-05T05:00:09.064Z,6.50
2023-03-05T05:02:35.818Z,6.50
2023-03-05T05:05:02.496Z,6.50
2023-03-05T05:07:29.171Z,6.50
2023-03-05T05:09:55.868Z,6.50
2023-03-05T05:12:22.563Z,6.50
2023-03-05T05:14:49.297Z,6.50
2023-03-05T05:17:15.999Z,6.40
2023-03-05T05:19:42.838Z,6.50
2023-03-05T05:22:09.648Z,6.40
2023-03-05T05:24:36.356Z,6.40
2023-03-05T05:27:03.095Z,6.40
2023-03-05T05:29:29.810Z,6.40
2023-03-05T05:31:56.498Z,6.40
2023-03-05T05:34:23.198Z,6.40
2023-03-05T05:36:49.899Z,6.40
2023-03-05T05:39:17.741Z,6.50
2023-03-05T05:41:45.246Z,6.50
2023-03-05T05:44:11.952Z,6.50
2023-03-05T05:46:38.635Z,6.50
2023-03-05T05:49:05.372Z,6.50
2023-03-05T05:51:32.052Z,6.50
2023-03-05T05:53:58.779Z,6.50
2023-03-05T05:56:25.453Z,6.50
2023-03-05T05:58:52.210Z,6.50
2023-03-05T06:01:27.048Z,6.50
2023-03-05T06:03:53.940Z,6.50
2023-03-05T06:06:21.449Z,6.50
2023-03-05T06:08:48.235Z,6.50
2023-03-05T06:11:16.337Z,6.50
2023-03-05T06:13:44.580Z,6.50
2023-03-05T06:16:13.713Z,6.50
2023-03-05T06:18:40.445Z,6.60
2023-03-05T06:21:08.768Z,6.50
2023-03-05T06:23:35.581Z,6.50
2023-03-05T06:26:03.698Z,6.50
2023-03-05T06:28:30.553Z,6.50
2023-03-05T06:31:11.280Z,6.50
2023-03-05T06:33:38.405Z,6.50
2023-03-05T06:36:06.875Z,6.50
2023-03-05T06:38:33.852Z,6.50
2023-03-05T06:41:11.558Z,6.50
2023-03-05T06:43:39.454Z,6.50
2023-03-05T06:46:08.527Z,6.50
2023-03-05T06:48:35.290Z,6.50
2023-03-05T06:51:01.992Z,6.50
2023-03-05T06:53:28.660Z,6.50
2023-03-05T06:55:55.400Z,6.50
2023-03-05T06:58:22.177Z,6.40
2023-03-05T07:00:48.906Z,6.50
2023-03-05T07:03:15.639Z,6.40
2023-03-05T07:05:42.603Z,6.50
2023-03-05T07:08:09.517Z,6.40
2023-03-05T07:10:39.941Z,6.50
2023-03-05T07:13:07.387Z,6.40
2023-03-05T07:15:34.433Z,6.40
2023-03-05T07:18:01.120Z,6.40
2023-03-05T07:20:27.822Z,6.40
2023-03-05T07:22:54.486Z,6.40
2023-03-05T07:25:21.190Z,6.40
2023-03-05T07:27:48.326Z,6.40
2023-03-05T07:30:15.244Z,6.30
2023-03-05T07:32:41.934Z,6.30
2023-03-05T07:35:09.076Z,6.30
2023-03-05T07:37:35.839Z,6.30
2023-03-05T07:40:02.630Z,6.30
2023-03-05T07:42:29.366Z,6.30
2023-03-05T07:44:56.181Z,6.30
2023-03-05T07:47:22.894Z,6.30
2023-03-05T07:49:50.030Z,6.30
2023-03-05T07:52:16.788Z,6.30
2023-03-05T07:54:43.483Z,6.40
2023-03-05T07:57:10.926Z,6.40
2023-03-05T07:59:38.344Z,6.40
2023-03-05T08:02:05.303Z,6.40
2023-03-05T08:04:32.192Z,6.40
2023-03-05T08:06:59.529Z,6.50
2023-03-05T08:09:26.406Z,6.50
2023-03-05T08:11:53.128Z,6.50
2023-03-05T08:14:19.844Z,6.50
2023-03-05T08:16:48.326Z,6.50
2023-03-05T08:19:15.268Z,6.50
2023-03-05T08:21:43.010Z,6.50
2023-03-05T08:24:10.558Z,6.50
2023-03-05T08:26:37.679Z,6.60
2023-03-05T08:29:05.131Z,6.60
2023-03-05T08:31:31.985Z,6.60
2023-03-05T08:33:59.316Z,6.60
2023-03-05T08:36:26.055Z,6.60
2023-03-05T08:38:52.761Z,6.70
2023-03-05T08:41:19.524Z,6.60
2023-03-05T08:43:46.247Z,6.60
2023-03-05T08:46:13.132Z,6.60
2023-03-05T08:48:39.895Z,6.50
2023-03-05T08:51:11.607Z,6.50
2023-03-05T08:53:38.665Z,6.60
2023-03-05T08:56:05.991Z,6.60
2023-03-05T08:58:32.793Z,6.60
2023-03-05T09:00:59.936Z,6.70
2023-03-05T09:03:26.836Z,6.70
2023-03-05T09:05:53.620Z,6.80
2023-03-05T09:08:20.379Z,6.80
2023-03-05T09:10:47.189Z,6.90
2023-03-05T09:13:14.051Z,6.90
2023-03-05T09:15:40.837Z,6.80
2023-03-05T09:18:07.583Z,6.80
2023-03-05T09:20:34.639Z,6.80
2023-03-05T09:23:01.466Z,6.80
2023-03-05T09:25:28.220Z,6.80
2023-03-05T09:27:54.954Z,6.80
2023-03-05T09:30:21.621Z,6.70
2023-03-05T09:32:48.350Z,6.80
2023-03-05T09:35:15.061Z,6.90
2023-03-05T09:37:41.787Z,6.90
2023-03-05T09:40:13.162Z,7.00
2023-03-05T09:43:04.715Z,7.10
2023-03-05T09:45:59.729Z,7.20
2023-03-05T09:48:34.742Z,7.10
2023-03-05T09:51:02.316Z,7.10
2023-03-05T09:53:41.660Z,7.10
2023-03-05T09:56:26.732Z,7.10
2023-03-05T09:58:56.233Z,7.10
2023-03-05T10:01:29.342Z,7.20
2023-03-05T10:04:14.099Z,7.30
2023-03-05T10:07:15.194Z,7.30
2023-03-05T10:09:45.859Z,7.30
2023-03-05T10:12:15.352Z,7.30
2023-03-05T10:14:42.111Z,7.30
2023-03-05T10:17:35.139Z,7.30
2023-03-05T10:20:07.826Z,7.40
2023-03-05T10:22:57.473Z,7.40
2023-03-05T10:25:45.028Z,7.40
2023-03-05T10:28:16.320Z,7.50
2023-03-05T10:31:34.440Z,7.60
2023-03-05T10:34:29.201Z,7.60
2023-03-05T10:37:04.684Z,7.70
2023-03-05T10:39:56.352Z,7.80
2023-03-05T10:42:41.925Z,7.90
2023-03-05T10:45:17.164Z,7.90
2023-03-05T10:47:51.400Z,8.00
2023-03-05T10:50:20.865Z,7.90
2023-03-05T10:52:50.041Z,7.90
2023-03-05T10:55:18.702Z,7.90
2023-03-05T10:57:45.493Z,8.00
2023-03-05T11:00:19.518Z,8.10
2023-03-05T11:03:09.468Z,8.30
2023-03-05T11:05:38.935Z,8.30
2023-03-05T11:08:24.318Z,8.20
2023-03-05T11:11:10.484Z,8.10
2023-03-05T11:13:58.339Z,8.00
2023-03-05T11:16:33.008Z,8.10
2023-03-05T11:19:15.161Z,8.20
2023-03-05T11:21:42.491Z,8.30
2023-03-05T11:24:14.007Z,8.30
2023-03-05T11:26:51.244Z,8.30
2023-03-05T11:29:26.642Z,8.30
2023-03-05T11:31:54.711Z,8.40
2023-03-05T11:34:24.017Z,8.40
2023-03-05T11:36:53.758Z,8.40
2023-03-05T11:39:21.924Z,8.40
2023-03-05T11:42:17.760Z,8.40
2023-03-05T11:44:51.666Z,8.40
2023-03-05T11:47:30.535Z,8.50
2023-03-05T11:50:23.877Z,8.50
2023-03-05T11:53:06.900Z,8.60
2023-03-05T11:55:40.836Z,8.70
2023-03-05T11:58:24.906Z,8.70
2023-03-05T12:00:51.679Z,8.60
2023-03-05T12:03:33.104Z,8.60
2023-03-05T12:06:04.560Z,8.60
2023-03-05T12:08:35.942Z,8.50
2023-03-05T12:11:25.608Z,8.40
2023-03-05T12:13:55.968Z,8.30
2023-03-05T12:16:48.406Z,8.10
2023-03-05T12:19:38.694Z,8.10
2023-03-05T12:22:14.083Z,8.00
2023-03-05T12:24:43.195Z,7.90
2023-03-05T12:27:14.145Z,7.80
2023-03-05T12:29:50.117Z,7.80
2023-03-05T12:32:22.732Z,7.90
2023-03-05T12:34:55.719Z,7.80
2023-03-05T12:37:22.295Z,7.80
2023-03-05T12:39:58.480Z,7.80
2023-03-05T12:42:28.300Z,7.80
2023-03-05T12:45:10.105Z,7.70
2023-03-05T12:47:40.713Z,7.80
2023-03-05T12:50:26.377Z,7.80
2023-03-05T12:53:14.307Z,7.90
2023-03-05T12:55:44.061Z,7.90
2023-03-05T12:58:35.232Z,7.90
2023-03-05T13:01:06.161Z,7.90
2023-03-05T13:03:39.553Z,7.80
2023-03-05T13:06:06.468Z,7.80
2023-03-05T13:08:34.343Z,7.90
2023-03-05T13:11:01.840Z,7.90
2023-03-05T13:13:37.225Z,7.80
2023-03-05T13:16:04.430Z,7.80
2023-03-05T13:18:32.332Z,7.70
2023-03-05T13:21:11.587Z,7.70
2023-03-05T13:23:38.349Z,7.70
2023-03-05T13:26:11.240Z,7.60
2023-03-05T13:28:37.930Z,7.60
2023-03-05T13:31:17.910Z,7.60
2023-03-05T13:33:56.193Z,7.60
2023-03-05T13:36:24.189Z,7.60
2023-03-05T13:38:50.895Z,7.60
2023-03-05T13:41:25.088Z,7.60
2023-03-05T13:43:56.744Z,7.70
2023-03-05T13:46:38.290Z,7.80
2023-03-05T13:49:27.049Z,7.90
2023-03-05T13:51:55.539Z,8.00
2023-03-05T13:54:23.093Z,8.10
2023-03-05T13:56:55.868Z,8.10
2023-03-05T13:59:24.148Z,8.10
2023-03-05T14:01:51.286Z,8.00
2023-03-05T14:04:34.188Z,8.00
2023-03-05T14:07:06.138Z,8.00
2023-03-05T14:09:45.485Z,8.00
2023-03-05T14:12:34.609Z,7.90
2023-03-05T14:15:01.898Z,7.90
2023-03-05T14:17:34.710Z,7.90
2023-03-05T14:20:25.122Z,8.00
2023-03-05T14:22:59.970Z,8.00
2023-03-05T14:25:35.188Z,7.90
2023-03-05T14:28:07.500Z,7.90
2023-03-05T14:30:34.254Z,7.90
2023-03-05T14:33:01.085Z,7.80
2023-03-05T14:35:28.731Z,7.80
2023-03-05T14:37:56.904Z,7.70
2023-03-05T14:40:33.924Z,7.60
2023-03-05T14:43:04.840Z,7.60
2023-03-05T14:45:39.744Z,7.60
2023-03-05T14:48:08.312Z,7.60
2023-03-05T14:50:45.882Z,7.60
2023-03-05T14:53:17.216Z,7.60
2023-03-05T14:55:47.040Z,7.60
2023-03-05T14:58:15.311Z,7.50
2023-03-05T15:00:44.122Z,7.50
2023-03-05T15:03:12.445Z,7.50
2023-03-05T15:05:42.351Z,7.50
2023-03-05T15:08:30.161Z,7.50
2023-03-05T15:10:57.832Z,7.50
2023-03-05T15:13:24.802Z,7.40
2023-03-05T15:15:51.827Z,7.40
2023-03-05T15:18:19.879Z,7.40
2023-03-05T15:20:47.099Z,7.30
2023-03-05T15:23:13.840Z,7.30
2023-03-05T15:25:40.672Z,7.30
2023-03-05T15:28:07.569Z,7.30
2023-03-05T15:30:36.166Z,7.30
2023-03-05T15:33:04.798Z,7.30
2023-03-05T15:35:31.751Z,7.30
2023-03-05T15:37:58.474Z,7.30
2023-03-05T15:40:25.253Z,7.20
2023-03-05T15:42:52.069Z,7.10
2023-03-05T15:45:20.347Z,7.10
2023-03-05T15:47:51.037Z,7.10
2023-03-05T15:50:18.845Z,7.10
2023-03-05T15:52:45.790Z,7.10
2023-03-05T15:55:12.619Z,7.10
2023-03-05T15:57:46.580Z,7.20
2023-03-05T16:00:14.560Z,7.20
2023-03-05T16:02:41.470Z,7.10
2023-03-05T16:05:09.662Z,7.10
2023-03-05T16:07:37.624Z,7.10
2023-03-05T16:10:05.028Z,7.10
2023-03-05T16:12:35.733Z,7.10
2023-03-05T16:15:02.574Z,7.20
2023-03-05T16:17:30.828Z,7.20
2023-03-05T16:19:58.992Z,7.10
2023-03-05T16:22:26.024Z,7.20
2023-03-05T16:24:53.538Z,7.20
2023-03-05T16:27:20.670Z,7.30
2023-03-05T16:29:47.750Z,7.30
2023-03-05T16:32:15.306Z,7.30
2023-03-05T16:34:45.169Z,7.30
2023-03-05T16:37:18.615Z,7.30
2023-03-05T16:39:46.382Z,7.30
2023-03-05T16:42:13.610Z,7.30
2023-03-05T16:44:43.990Z,7.20
2023-03-05T16:47:11.460Z,7.20
2023-03-05T16:49:39.728Z,7.30
2023-03-05T16:52:18.198Z,7.30
2023-03-05T16:54:46.265Z,7.30
2023-03-05T16:57:13.269Z,7.30
2023-03-05T16:59:40.309Z,7.20
2023-03-05T17:02:10.942Z,7.20
2023-03-05T17:04:38.169Z,7.20
2023-03-05T17:07:04.903Z,7.20
2023-03-05T17:09:31.589Z,7.20
2023-03-05T17:11:58.312Z,7.20
2023-03-05T17:14:25.070Z,7.20
2023-03-05T17:16:51.804Z,7.20
2023-03-05T17:19:18.587Z,7.20
2023-03-05T17:21:45.298Z,7.20
2023-03-05T17:24:12.134Z,7.10
2023-03-05T17:26:38.860Z,7.10
2023-03-05T17:29:06.312Z,7.00
2023-03-05T17:31:33.373Z,7.10
2023-03-05T17:34:00.282Z,7.10
2023-03-05T17:36:26.989Z,7.10
2023-03-05T17:38:53.846Z,7.10
2023-03-05T17:41:20.715Z,7.10
2023-03-05T17:43:47.694Z,7.10
2023-03-05T17:46:14.622Z,7.00
2023-03-05T17:48:41.359Z,7.00
2023-03-05T17:51:09.882Z,7.00
2023-03-05T17:53:36.803Z,7.00
2023-03-05T17:56:07.344Z,7.00
2023-03-05T17:58:34.053Z,7.00
2023-03-05T18:01:01.130Z,7.00
2023-03-05T18:03:28.845Z,7.00
2023-03-05T18:05:55.933Z,6.90
2023-03-05T18:08:22.739Z,7.00
2023-03-05T18:10:49.459Z,7.00
2023-03-05T18:13:16.282Z,7.00
2023-03-05T18:15:43.000Z,7.00
2023-03-05T18:18:09.851Z,7.00
2023-03-05T18:20:37.160Z,7.00
2023-03-05T18:23:04.640Z,7.00
2023-03-05T18:25:31.481Z,6.90
2023-03-05T18:28:06.017Z,6.90
2023-03-05T18:30:32.896Z,6.90
2023-03-05T18:32:59.675Z,6.90
2023-03-05T18:35:26.440Z,6.90
2023-03-05T18:37:53.164Z,6.90
2023-03-05T18:40:24.021Z,7.00
2023-03-05T18:42:52.294Z,7.00
2023-03-05T18:45:21.860Z,7.00
2023-03-05T18:47:49.122Z,7.00
2023-03-05T18:50:16.872Z,7.00
2023-03-05T18:52:43.783Z,7.00
2023-03-05T18:55:22.054Z,6.90
2023-03-05T18:57:48.760Z,6.90
2023-03-05T19:00:21.062Z,6.90
2023-03-05T19:02:47.899Z,6.90
2023-03-05T19:05:15.048Z,6.90
2023-03-05T19:07:41.803Z,6.90
2023-03-05T19:10:10.800Z,6.90
2023-03-05T19:12:38.023Z,6.90
2023-03-05T19:15:05.499Z,6.90
2023-03-05T19:17:32.277Z,6.90
2023-03-05T19:19:59.097Z,6.80
2023-03-05T19:22:26.513Z,6.80
2023-03-05T19:24:53.857Z,6.80
2023-03-05T19:27:20.545Z,6.80
2023-03-05T19:29:47.274Z,6.80
2023-03-05T19:32:15.128Z,6.80
2023-03-05T19:34:42.250Z,6.80
2023-03-05T19:37:08.951Z,6.80
2023-03-05T19:39:35.677Z,6.80
2023-03-05T19:42:02.379Z,6.80
2023-03-05T19:44:29.538Z,6.80
2023-03-05T19:46:56.285Z,6.70
2023-03-05T19:49:23.071Z,6.70
2023-03-05T19:51:49.951Z,6.80
2023-03-05T19:54:17.562Z,6.80
2023-03-05T19:56:44.905Z,6.80
2023-03-05T19:59:11.678Z,6.80
2023-03-05T20:01:38.385Z,6.80
2023-03-05T20:04:05.156Z,6.80
2023-03-05T20:06:32.557Z,6.80
2023-03-05T20:08:59.537Z,6.80
2023-03-05T20:11:26.286Z,6.80
2023-03-05T20:13:55.419Z,6.80
2023-03-05T20:16:24.004Z,6.80
2023-03-05T20:18:51.121Z,6.80
2023-03-05T20:21:18.020Z,6.70
2023-03-05T20:23:44.752Z,6.70
2023-03-05T20:26:11.459Z,6.70
2023-03-05T20:28:38.126Z,6.60
2023-03-05T20:31:05.000Z,6.60
2023-03-05T20:33:31.701Z,6.60
2023-03-05T20:35:58.417Z,6.70
2023-03-05T20:38:28.492Z,6.70
2023-03-05T20:40:55.947Z,6.70
2023-03-05T20:43:22.956Z,6.70
2023-03-05T20:45:49.785Z,6.70
2023-03-05T20:48:16.703Z,6.70
2023-03-05T20:50:43.465Z,6.70
2023-03-05T20:53:10.134Z,6.80
2023-03-05T20:55:36.837Z,6.70
2023-03-05T20:58:03.552Z,6.70
2023-03-05T21:00:30.314Z,6.70
2023-03-05T21:02:57.060Z,6.70
2023-03-05T21:05:24.599Z,6.70
2023-03-05T21:07:51.496Z,6.70
2023-03-05T21:10:19.094Z,6.70
2023-03-05T21:12:47.134Z,6.70
2023-03-05T21:15:15.322Z,6.70
2023-03-05T21:17:42.035Z,6.70
2023-03-05T21:20:09.925Z,6.70
2023-03-05T21:22:36.629Z,6.70
2023-03-05T21:25:06.768Z,6.70
2023-03-05T21:27:33.492Z,6.70
2023-03-05T21:30:00.234Z,6.70
2023-03-05T21:32:26.955Z,6.70
2023-03-05T21:34:53.671Z,6.70
2023-03-05T21:37:20.358Z,6.70
2023-03-05T21:39:47.038Z,6.70
2023-03-05T21:42:13.732Z,6.70
2023-03-05T21:44:40.444Z,6.70
2023-03-05T21:47:07.177Z,6.70
2023-03-05T21:49:33.916Z,6.70
2023-03-05T21:52:00.638Z,6.70
2023-03-05T21:54:28.972Z,6.70
2023-03-05T21:56:55.789Z,6.70
2023-03-05T21:59:22.476Z,6.70
2023-03-05T22:01:50.887Z,6.60
2023-03-05T22:04:19.048Z,6.70
2023-03-05T22:06:45.720Z,6.70
2023-03-05T22:09:12.430Z,6.70
2023-03-05T22:11:41.050Z,6.70
2023-03-05T22:14:07.734Z,6.70
2023-03-05T22:16:34.464Z,6.70
2023-03-05T22:19:01.589Z,6.70
2023-03-05T22:21:28.498Z,6.70
2023-03-05T22:23:55.500Z,6.60
2023-03-05T22:26:22.202Z,6.60
2023-03-05T22:28:49.060Z,6.60
2023-03-05T22:31:26.069Z,6.60
2023-03-05T22:33:52.881Z,6.60
2023-03-05T22:36:19.736Z,6.60
2023-03-05T22:38:46.602Z,6.70
2023-03-05T22:41:14.907Z,6.70
2023-03-05T22:43:41.778Z,6.60
2023-03-05T22:46:16.481Z,6.60
2023-03-05T22:48:43.552Z,6.60
2023-03-05T22:51:10.445Z,6.60
2023-03-05T22:53:37.871Z,6.60
2023-03-05T22:56:15.583Z,6.60
2023-03-05T22:58:42.431Z,6.60
2023-03-05T23:01:18.545Z,6.60
2023-03-05T23:03:45.376Z,6.60
2023-03-05T23:06:12.112Z,6.60
2023-03-05T23:08:38.849Z,6.60
2023-03-05T23:11:10.279Z,6.60
2023-03-05T23:13:37.009Z,6.60
2023-03-05T23:16:03.973Z,6.60
2023-03-05T23:18:30.688Z,6.60
2023-03-05T23:20:57.373Z,6.60
2023-03-05T23:23:24.171Z,6.60
2023-03-05T23:25:51.459Z,6.60
2023-03-05T23:28:19.205Z,6.60
2023-03-05T23:30:45.931Z,6.60
2023-03-05T23:33:19.460Z,6.60
2023-03-05T23:35:57.445Z,6.60
2023-03-05T23:38:24.683Z,6.60
2023-03-05T23:40:52.771Z,6.60
2023-03-05T23:43:20.127Z,6.60
2023-03-05T23:45:48.112Z,6.60
2023-03-05T23:48:15.737Z,6.60
2023-03-05T23:50:43.496Z,6.60
2023-03-05T23:53:10.478Z,6.60
2023-03-05T23:55:42.072Z,6.60
2023-03-05T23:58:08.990Z,6.60
